createdAt,value
2019-04-03T00:00:17.935Z,12.30
2019-04-03T00:02:52.322Z,10.83
2019-04-03T00:05:26.430Z,12.07
2019-04-03T00:07:59.489Z,13.63
2019-04-03T00:10:31.498Z,12.10
2019-04-03T00:13:04.500Z,11.53
2019-04-03T00:15:37.566Z,12.47
2019-04-03T00:18:10.527Z,11.60
2019-04-03T00:20:43.539Z,12.07
2019-04-03T00:23:17.603Z,12.87
2019-04-03T00:25:51.995Z,12.23
2019-04-03T00:28:22.855Z,13.73
2019-04-03T00:30:55.670Z,13.90
2019-04-03T00:33:28.587Z,12.90
2019-04-03T00:36:03.405Z,12.50
2019-04-03T00:38:34.724Z,12.03
2019-04-03T00:41:09.696Z,13.00
2019-04-03T00:43:43.835Z,13.07
2019-04-03T00:46:19.455Z,14.33
2019-04-03T00:48:51.636Z,13.60
2019-04-03T00:51:27.512Z,13.90
2019-04-03T00:53:58.597Z,13.30
2019-04-03T00:56:32.900Z,12.63
2019-04-03T00:59:04.723Z,11.13
2019-04-03T01:01:37.775Z,12.23
2019-04-03T01:04:12.393Z,12.40
2019-04-03T01:06:43.667Z,12.87
2019-04-03T01:09:17.783Z,14.90
2019-04-03T01:11:49.921Z,13.63
2019-04-03T01:14:23.673Z,13.03
2019-04-03T01:16:55.822Z,14.80
2019-04-03T01:19:29.814Z,16.03
2019-04-03T01:22:03.820Z,19.73
2019-04-03T01:24:38.803Z,15.20
2019-04-03T01:27:11.954Z,14.10
2019-04-03T01:29:43.790Z,14.00
2019-04-03T01:32:18.519Z,13.73
2019-04-03T01:34:49.946Z,13.40
2019-04-03T01:37:22.152Z,12.60
2019-04-03T01:39:55.743Z,12.47
2019-04-03T01:42:29.489Z,14.17
2019-04-03T01:45:01.856Z,12.97
2019-04-03T01:47:33.918Z,14.23
2019-04-03T01:50:06.336Z,14.17
2019-04-03T01:52:37.865Z,11.80
2019-04-03T01:55:09.412Z,12.53
2019-04-03T01:57:41.867Z,12.97
2019-04-03T02:00:14.191Z,14.47
2019-04-03T02:02:49.404Z,12.60
2019-04-03T02:05:22.054Z,13.80
2019-04-03T02:07:55.818Z,15.33
2019-04-03T02:10:30.967Z,17.70
2019-04-03T02:13:04.527Z,18.63
2019-04-03T02:15:37.032Z,14.10
2019-04-03T02:18:10.042Z,13.33
2019-04-03T02:20:43.982Z,13.10
2019-04-03T02:23:17.216Z,12.90
2019-04-03T02:25:50.270Z,11.90
2019-04-03T02:28:21.485Z,12.13
2019-04-03T02:30:55.851Z,15.20
2019-04-03T02:40:41.917Z,13.80
2019-04-03T02:43:14.126Z,13.83
2019-04-03T02:45:49.216Z,12.40
2019-04-03T02:48:23.289Z,12.40
2019-04-03T02:50:55.273Z,12.30
2019-04-03T02:53:31.125Z,12.50
2019-04-03T02:56:04.369Z,12.60
2019-04-03T02:58:37.258Z,13.80
2019-04-03T03:01:11.258Z,12.73
2019-04-03T03:03:43.685Z,13.80
2019-04-03T03:06:17.599Z,13.20
2019-04-03T03:08:50.935Z,13.97
2019-04-03T03:11:25.098Z,12.23
2019-04-03T03:13:58.367Z,12.80
2019-04-03T03:16:32.236Z,13.80
2019-04-03T03:19:06.508Z,14.57
2019-04-03T03:21:43.886Z,13.67
2019-04-03T03:24:14.950Z,14.37
2019-04-03T03:26:46.625Z,14.53
2019-04-03T03:29:25.214Z,13.20
2019-04-03T03:32:09.041Z,12.80
2019-04-03T03:34:47.750Z,13.47
2019-04-03T03:37:06.733Z,14.30
2019-04-03T03:39:42.713Z,13.13
2019-04-03T03:42:14.024Z,14.77
2019-04-03T03:44:48.323Z,12.13
2019-04-03T03:47:21.702Z,13.57
2019-04-03T03:49:54.161Z,13.33
2019-04-03T03:52:30.097Z,13.93
2019-04-03T03:55:02.793Z,12.23
2019-04-03T03:57:37.895Z,13.30
2019-04-03T04:00:08.388Z,12.97
2019-04-03T04:02:44.569Z,14.80
2019-04-03T04:05:21.426Z,13.60
2019-04-03T04:07:54.705Z,13.47
2019-04-03T04:10:29.320Z,13.80
2019-04-03T04:13:02.836Z,12.90
2019-04-03T04:15:34.401Z,12.27
2019-04-03T04:18:06.077Z,11.30
2019-04-03T04:20:38.908Z,12.90
2019-04-03T04:23:11.735Z,13.33
2019-04-03T04:25:44.626Z,14.67
2019-04-03T04:28:16.687Z,12.77
2019-04-03T04:30:50.490Z,14.83
2019-04-03T04:33:21.928Z,12.20
2019-04-03T04:35:53.954Z,12.90
2019-04-03T04:38:28.563Z,14.63
2019-04-03T04:41:02.240Z,14.43
2019-04-03T04:43:34.348Z,13.10
2019-04-03T04:46:09.238Z,13.03
2019-04-03T04:48:44.154Z,13.27
2019-04-03T04:51:16.606Z,14.50
2019-04-03T04:53:51.478Z,14.70
2019-04-03T04:56:22.884Z,13.43
2019-04-03T04:58:56.890Z,13.83
2019-04-03T05:01:29.740Z,12.20
2019-04-03T05:04:01.247Z,12.60
2019-04-03T05:06:33.686Z,12.60
2019-04-03T05:09:07.781Z,13.60
2019-04-03T05:11:40.900Z,14.00
2019-04-03T05:14:13.964Z,15.20
2019-04-03T05:16:48.264Z,13.67
2019-04-03T05:19:21.905Z,14.83
2019-04-03T05:21:54.856Z,11.93
2019-04-03T05:24:28.870Z,13.10
2019-04-03T05:27:03.256Z,11.90
2019-04-03T05:29:35.404Z,14.37
2019-04-03T05:32:10.457Z,14.17
2019-04-03T05:34:44.680Z,12.73
2019-04-03T05:37:19.999Z,14.07
2019-04-03T05:39:54.698Z,13.87
2019-04-03T05:42:28.420Z,13.43
2019-04-03T05:44:59.147Z,12.00
2019-04-03T05:47:32.139Z,12.50
2019-04-03T05:50:06.211Z,13.57
2019-04-03T05:52:38.099Z,14.17
2019-04-03T05:55:11.418Z,14.47
2019-04-03T05:57:45.977Z,13.83
2019-04-03T06:00:20.384Z,14.50
2019-04-03T06:02:56.922Z,12.67
2019-04-03T06:05:30.743Z,14.37
2019-04-03T06:08:03.174Z,13.20
2019-04-03T06:10:37.149Z,14.50
2019-04-03T06:13:11.094Z,13.43
2019-04-03T06:15:45.910Z,14.57
2019-04-03T06:18:18.143Z,14.83
2019-04-03T06:20:50.175Z,14.73
2019-04-03T06:23:27.500Z,11.90
2019-04-03T06:26:02.172Z,13.43
2019-04-03T06:28:33.370Z,11.77
2019-04-03T06:31:08.111Z,13.33
2019-04-03T06:33:42.715Z,13.80
2019-04-03T06:36:17.207Z,14.50
2019-04-03T06:38:50.106Z,13.27
2019-04-03T06:41:24.104Z,12.40
2019-04-03T06:43:56.218Z,13.10
2019-04-03T06:46:30.538Z,12.27
2019-04-03T06:49:03.503Z,12.93
2019-04-03T06:51:34.890Z,13.23
2019-04-03T06:54:09.992Z,13.00
2019-04-03T06:56:44.561Z,12.63
2019-04-03T06:59:18.374Z,13.03
2019-04-03T07:01:52.824Z,13.87
2019-04-03T07:04:26.495Z,13.07
2019-04-03T07:06:58.330Z,12.83
2019-04-03T07:09:35.675Z,13.20
2019-04-03T07:12:04.337Z,13.90
2019-04-03T07:14:38.266Z,14.47
2019-04-03T07:17:11.442Z,15.30
2019-04-03T07:19:44.386Z,15.30
2019-04-03T07:22:18.595Z,16.70
2019-04-03T07:24:50.354Z,14.73
2019-04-03T07:27:23.399Z,16.13
2019-04-03T07:29:55.342Z,14.93
2019-04-03T07:32:28.334Z,16.73
2019-04-03T07:35:05.185Z,15.30
2019-04-03T07:37:34.773Z,14.93
2019-04-03T07:40:07.347Z,14.73
2019-04-03T07:42:42.828Z,15.40
2019-04-03T07:48:42.568Z,25.07
2019-04-03T07:51:16.558Z,27.40
2019-04-03T07:53:51.193Z,25.00
2019-04-03T07:56:25.612Z,18.70
2019-04-03T07:58:58.575Z,16.83
2019-04-03T08:01:33.583Z,24.27
2019-04-03T08:04:08.805Z,20.70
2019-04-03T08:06:41.488Z,17.43
2019-04-03T08:09:13.574Z,18.50
2019-04-03T08:11:45.836Z,16.87
2019-04-03T08:14:19.988Z,14.87
2019-04-03T08:16:52.928Z,15.37
2019-04-03T08:19:24.634Z,17.10
2019-04-03T08:22:01.151Z,14.17
2019-04-03T08:24:32.642Z,16.70
2019-04-03T08:27:07.441Z,17.67
2019-04-03T08:29:38.641Z,16.23
2019-04-03T08:32:10.646Z,17.07
2019-04-03T08:34:43.625Z,15.73
2019-04-03T08:37:28.442Z,13.40
2019-04-03T08:39:50.138Z,11.70
2019-04-03T08:42:24.392Z,12.20
2019-04-03T08:45:00.494Z,14.70
2019-04-03T08:47:32.198Z,12.50
2019-04-03T08:50:07.600Z,12.30
2019-04-03T08:52:42.461Z,12.73
2019-04-03T08:55:14.601Z,12.97
2019-04-03T08:57:46.975Z,12.97
2019-04-03T09:00:20.701Z,14.23
2019-04-03T09:02:53.607Z,12.33
2019-04-03T09:05:26.805Z,14.47
2019-04-03T09:07:59.319Z,13.70
2019-04-03T09:10:34.738Z,11.97
2019-04-03T09:13:16.490Z,12.07
2019-04-03T09:15:40.877Z,13.13
2019-04-03T09:18:13.970Z,12.17
2019-04-03T09:20:46.981Z,13.80
2019-04-03T09:23:20.325Z,13.60
2019-04-03T09:25:55.115Z,13.73
2019-04-03T09:28:28.843Z,14.23
2019-04-03T09:31:01.914Z,12.50
2019-04-03T09:33:34.877Z,13.00
2019-04-03T09:36:07.027Z,13.03
2019-04-03T09:38:41.923Z,12.80
2019-04-03T09:41:14.012Z,13.77
2019-04-03T09:43:46.961Z,13.07
2019-04-03T09:46:20.077Z,12.87
2019-04-03T09:48:53.032Z,13.30
2019-04-03T09:51:26.032Z,13.03
2019-04-03T09:53:58.447Z,14.90
2019-04-03T09:56:36.499Z,12.20
2019-04-03T09:59:08.244Z,12.83
2019-04-03T10:01:41.943Z,13.00
2019-04-03T10:04:20.346Z,13.50
2019-04-03T10:06:53.178Z,14.50
2019-04-03T10:09:26.304Z,13.63
2019-04-03T10:11:59.078Z,14.03
2019-04-03T10:14:32.853Z,12.97
2019-04-03T10:17:06.167Z,13.40
2019-04-03T10:19:52.402Z,13.40
2019-04-03T10:22:26.399Z,11.57
2019-04-03T10:25:02.592Z,13.30
2019-04-03T10:27:34.642Z,15.60
2019-04-03T10:30:10.103Z,13.80
2019-04-03T10:32:44.220Z,14.90
2019-04-03T10:35:18.387Z,13.83
2019-04-03T10:37:53.129Z,13.40
2019-04-03T10:40:27.344Z,13.70
2019-04-03T10:43:00.929Z,31.20
2019-04-03T10:45:34.278Z,17.40
2019-04-03T10:48:06.419Z,14.63
2019-04-03T10:50:38.730Z,13.43
2019-04-03T10:53:11.502Z,14.50
2019-04-03T10:55:43.684Z,13.90
2019-04-03T10:58:17.831Z,15.30
2019-04-03T11:00:52.605Z,15.07
2019-04-03T11:03:26.847Z,14.00
2019-04-03T11:06:01.003Z,12.93
2019-04-03T11:08:32.394Z,14.50
2019-04-03T11:11:07.182Z,20.90
2019-04-03T11:13:42.895Z,18.00
2019-04-03T11:16:16.322Z,15.20
2019-04-03T11:18:59.253Z,14.00
2019-04-03T11:21:25.523Z,13.30
2019-04-03T11:23:59.494Z,14.43
2019-04-03T11:26:32.429Z,14.77
2019-04-03T11:29:09.996Z,13.47
2019-04-03T11:31:42.826Z,14.83
2019-04-03T11:34:18.546Z,14.63
2019-04-03T11:36:52.474Z,13.63
2019-04-03T11:39:26.140Z,13.97
2019-04-03T11:41:58.805Z,13.40
2019-04-03T11:44:30.729Z,12.87
2019-04-03T11:47:04.881Z,13.50
2019-04-03T11:49:38.563Z,12.90
2019-04-03T11:52:11.703Z,17.17
2019-04-03T11:54:43.207Z,18.40
2019-04-03T11:57:16.399Z,13.33
2019-04-03T11:59:47.892Z,11.20
2019-04-03T12:02:22.777Z,11.90
2019-04-03T12:04:56.584Z,12.57
2019-04-03T12:07:29.476Z,12.50
2019-04-03T12:10:03.307Z,11.63
2019-04-03T12:12:34.916Z,12.33
2019-04-03T12:15:08.583Z,12.57
2019-04-03T12:17:42.185Z,12.37
2019-04-03T12:20:16.317Z,11.90
2019-04-03T12:22:54.007Z,11.50
2019-04-03T12:25:24.689Z,12.90
2019-04-03T12:27:56.871Z,13.27
2019-04-03T12:30:29.311Z,11.07
2019-04-03T12:33:02.856Z,32.60
2019-04-03T12:35:35.277Z,14.67
2019-04-03T12:38:09.607Z,11.97
2019-04-03T12:40:41.213Z,13.20
2019-04-03T12:43:16.590Z,11.70
2019-04-03T12:45:50.376Z,12.23
2019-04-03T12:48:22.860Z,13.50
2019-04-03T12:50:56.894Z,11.83
2019-04-03T12:53:29.845Z,11.43
2019-04-03T12:56:02.311Z,11.47
2019-04-03T12:58:36.309Z,12.73
2019-04-03T13:01:10.646Z,11.27
2019-04-03T13:03:40.804Z,11.60
2019-04-03T13:06:14.897Z,11.00
2019-04-03T13:08:46.738Z,11.67
2019-04-03T13:11:20.550Z,11.60
2019-04-03T13:13:53.192Z,11.80
2019-04-03T13:16:26.210Z,12.00
2019-04-03T13:18:59.061Z,11.87
2019-04-03T13:21:32.833Z,11.80
2019-04-03T13:24:06.322Z,10.90
2019-04-03T13:26:38.185Z,13.33
2019-04-03T13:29:10.975Z,11.30
2019-04-03T13:31:46.743Z,12.17
2019-04-03T13:34:16.994Z,12.13
2019-04-03T13:36:51.681Z,11.50
2019-04-03T13:39:23.200Z,12.10
2019-04-03T13:41:58.655Z,11.33
2019-04-03T13:44:32.115Z,12.87
2019-04-03T13:47:06.099Z,12.80
2019-04-03T13:49:38.153Z,13.73
2019-04-03T13:52:11.290Z,12.97
2019-04-03T13:54:45.293Z,15.20
2019-04-03T13:57:17.185Z,11.63
2019-04-03T13:59:50.396Z,13.13
2019-04-03T14:02:23.270Z,11.63
2019-04-03T14:04:57.972Z,10.53
2019-04-03T14:07:32.989Z,10.43
2019-04-03T14:10:07.773Z,10.83
2019-04-03T14:12:44.150Z,11.40
2019-04-03T14:15:19.930Z,11.67
2019-04-03T14:17:56.400Z,11.20
2019-04-03T14:20:26.563Z,10.67
2019-04-03T14:23:02.688Z,11.00
2019-04-03T14:25:37.763Z,10.27
2019-04-03T14:28:08.264Z,10.23
2019-04-03T14:30:39.516Z,9.70
2019-04-03T14:33:11.383Z,9.70
2019-04-03T14:35:51.821Z,9.67
2019-04-03T14:38:20.377Z,9.30
2019-04-03T14:40:53.845Z,9.83
2019-04-03T14:43:27.566Z,9.90
2019-04-03T14:45:59.530Z,8.47
2019-04-03T14:48:32.602Z,9.43
2019-04-03T14:51:06.425Z,8.80
2019-04-03T14:53:38.374Z,8.70
2019-04-03T14:56:13.075Z,7.90
2019-04-03T14:58:44.502Z,8.83
2019-04-03T15:01:19.802Z,8.50
2019-04-03T15:03:53.471Z,7.83
2019-04-03T15:06:32.591Z,9.13
2019-04-03T15:09:09.292Z,6.50
2019-04-03T15:11:41.674Z,7.43
2019-04-03T15:14:14.621Z,7.30
2019-04-03T15:16:46.475Z,6.40
2019-04-03T15:19:20.814Z,7.27
2019-04-03T15:21:56.707Z,7.10
2019-04-03T15:24:28.338Z,8.03
2019-04-03T15:27:04.377Z,9.67
2019-04-03T15:29:38.207Z,10.33
2019-04-03T15:32:12.613Z,10.50
2019-04-03T15:34:46.032Z,10.20
2019-04-03T15:37:17.404Z,8.80
2019-04-03T15:39:56.438Z,10.63
2019-04-03T15:42:24.476Z,9.37
2019-04-03T15:44:57.882Z,10.17
2019-04-03T15:47:37.093Z,9.50
2019-04-03T15:50:03.431Z,9.40
2019-04-03T15:52:34.995Z,10.30
2019-04-03T15:55:10.811Z,9.93
2019-04-03T15:57:44.724Z,9.17
2019-04-03T16:00:19.520Z,8.60
2019-04-03T16:02:53.593Z,8.67
2019-04-03T16:05:29.595Z,9.13
2019-04-03T16:08:01.953Z,8.00
2019-04-03T16:10:36.654Z,9.90
2019-04-03T16:13:10.154Z,9.80
2019-04-03T16:15:42.053Z,8.27
2019-04-03T16:18:14.797Z,7.57
2019-04-03T16:20:48.955Z,7.80
2019-04-03T16:23:20.655Z,9.73
2019-04-03T16:25:53.811Z,10.20
2019-04-03T16:28:26.851Z,14.13
2019-04-03T16:30:58.529Z,20.67
2019-04-03T16:33:31.314Z,21.60
2019-04-03T16:36:04.410Z,19.17
2019-04-03T16:38:36.403Z,11.33
2019-04-03T16:41:11.625Z,11.47
2019-04-03T16:43:46.482Z,10.10
2019-04-03T16:46:20.091Z,10.10
2019-04-03T16:48:52.908Z,8.07
2019-04-03T16:51:26.890Z,9.30
2019-04-03T16:54:03.179Z,12.53
2019-04-03T16:56:35.007Z,12.07
2019-04-03T16:59:08.598Z,9.43
2019-04-03T17:01:44.370Z,10.90
2019-04-03T17:04:25.551Z,27.83
2019-04-03T17:06:50.899Z,18.43
2019-04-03T17:09:24.118Z,9.53
2019-04-03T17:11:56.082Z,8.07
2019-04-03T17:14:29.935Z,9.10
2019-04-03T17:17:03.949Z,9.90
2019-04-03T17:19:35.349Z,9.30
2019-04-03T17:22:07.785Z,7.87
2019-04-03T17:24:43.014Z,8.37
2019-04-03T17:27:14.509Z,7.90
2019-04-03T17:29:48.546Z,14.40
2019-04-03T17:32:21.199Z,12.90
2019-04-03T17:34:52.777Z,13.67
2019-04-03T17:37:27.133Z,21.27
2019-04-03T17:39:59.544Z,16.10
2019-04-03T17:42:32.604Z,13.20
2019-04-03T17:45:06.739Z,16.23
2019-04-03T17:47:38.177Z,51.23
2019-04-03T17:50:11.083Z,35.73
2019-04-03T17:52:44.185Z,19.57
2019-04-03T17:55:15.774Z,20.33
2019-04-03T17:57:50.471Z,18.70
2019-04-03T18:00:22.590Z,18.40
2019-04-03T18:02:55.190Z,19.83
2019-04-03T18:05:29.170Z,18.80
2019-04-03T18:08:02.228Z,40.37
2019-04-03T18:10:35.201Z,38.33
2019-04-03T18:13:09.218Z,17.50
2019-04-03T18:15:40.480Z,10.90
2019-04-03T18:18:13.276Z,7.67
2019-04-03T18:20:47.309Z,14.97
2019-04-03T18:23:21.653Z,22.47
2019-04-03T18:25:54.293Z,13.33
2019-04-03T18:28:29.000Z,8.70
2019-04-03T18:31:01.922Z,12.67
2019-04-03T18:33:34.445Z,14.10
2019-04-03T18:36:08.230Z,26.80
2019-04-03T18:38:41.496Z,23.77
2019-04-03T18:41:12.808Z,18.20
2019-04-03T18:43:44.426Z,12.80
2019-04-03T18:46:31.114Z,10.20
2019-04-03T18:52:14.624Z,11.13
2019-04-03T18:54:47.501Z,15.00
2019-04-03T18:57:19.063Z,24.40
2019-04-03T18:59:52.457Z,21.47
2019-04-03T19:02:27.032Z,13.97
2019-04-03T19:05:02.357Z,8.30
2019-04-03T19:07:35.180Z,6.47
2019-04-03T19:10:07.842Z,16.13
2019-04-03T19:12:43.106Z,11.37
2019-04-03T19:15:14.609Z,10.13
2019-04-03T19:17:59.094Z,11.07
2019-04-03T19:20:21.632Z,8.60
2019-04-03T19:23:02.527Z,8.60
2019-04-03T19:25:29.638Z,9.60
2019-04-03T19:28:02.130Z,9.40
2019-04-03T19:30:36.127Z,10.50
2019-04-03T19:33:12.056Z,11.03
2019-04-03T19:35:45.610Z,12.07
2019-04-03T19:38:20.394Z,10.40
2019-04-03T19:40:54.300Z,10.00
2019-04-03T19:43:27.759Z,11.70
2019-04-03T19:45:59.986Z,11.27
2019-04-03T19:48:31.232Z,19.10
2019-04-03T19:51:05.902Z,13.27
2019-04-03T19:53:38.590Z,10.43
2019-04-03T19:56:12.626Z,8.60
2019-04-03T19:58:46.351Z,9.60
2019-04-03T20:01:18.688Z,12.20
2019-04-03T20:03:54.200Z,11.30
2019-04-03T20:06:27.039Z,18.40
2019-04-03T20:09:00.810Z,10.73
2019-04-03T20:11:34.109Z,16.13
2019-04-03T20:14:07.122Z,8.43
2019-04-03T20:16:40.803Z,12.67
2019-04-03T20:19:13.800Z,20.23
2019-04-03T20:21:49.436Z,21.50
2019-04-03T20:24:25.180Z,12.10
2019-04-03T20:26:58.074Z,7.40
2019-04-03T20:29:31.955Z,14.60
2019-04-03T20:32:06.981Z,9.33
2019-04-03T20:34:38.931Z,24.87
2019-04-03T20:37:11.982Z,16.40
2019-04-03T20:39:43.637Z,6.43
2019-04-03T20:42:16.021Z,4.97
2019-04-03T20:44:48.834Z,9.80
2019-04-03T20:47:21.019Z,11.20
2019-04-03T20:49:54.024Z,7.80
2019-04-03T20:52:26.091Z,6.03
2019-04-03T20:54:57.997Z,4.97
2019-04-03T20:57:33.975Z,5.87
2019-04-03T21:00:11.958Z,6.40
2019-04-03T21:02:46.301Z,7.63
2019-04-03T21:05:19.180Z,4.67
2019-04-03T21:07:55.551Z,5.27
2019-04-03T21:10:25.971Z,6.27
2019-04-03T21:12:57.184Z,8.37
2019-04-03T21:15:30.940Z,15.70
2019-04-03T21:18:04.048Z,10.40
2019-04-03T21:20:35.383Z,8.23
2019-04-03T21:23:08.526Z,6.40
2019-04-03T21:25:42.081Z,4.80
2019-04-03T21:28:15.029Z,4.83
2019-04-03T21:30:47.927Z,4.83
2019-04-03T21:33:19.896Z,5.17
2019-04-03T21:35:51.145Z,4.33
2019-04-03T21:38:29.620Z,3.73
2019-04-03T21:41:02.169Z,4.77
2019-04-03T21:43:34.337Z,4.30
2019-04-03T21:46:09.568Z,4.70
2019-04-03T21:48:44.770Z,4.40
2019-04-03T21:51:20.516Z,4.30
2019-04-03T21:53:51.212Z,3.77
2019-04-03T21:56:24.237Z,3.90
2019-04-03T21:58:58.277Z,4.40
2019-04-03T22:01:31.037Z,5.00
2019-04-03T22:04:04.333Z,4.30
2019-04-03T22:06:35.571Z,4.30
2019-04-03T22:09:12.159Z,6.50
2019-04-03T22:11:45.713Z,4.57
2019-04-03T22:14:19.079Z,5.17
2019-04-03T22:16:51.653Z,4.37
2019-04-03T22:19:23.486Z,3.77
2019-04-03T22:21:54.721Z,3.50
2019-04-03T22:24:28.402Z,3.90
2019-04-03T22:27:01.400Z,3.50
2019-04-03T22:29:35.514Z,4.03
2019-04-03T22:32:08.204Z,3.83
2019-04-03T22:34:42.460Z,4.57
2019-04-03T22:37:17.655Z,5.93
2019-04-03T22:39:52.542Z,5.53
2019-04-03T22:42:25.569Z,5.60
2019-04-03T22:45:01.112Z,4.23
2019-04-03T22:47:32.457Z,3.27
2019-04-03T22:50:06.580Z,3.77
2019-04-03T22:52:39.954Z,3.80
2019-04-03T22:55:12.991Z,3.43
2019-04-03T22:57:44.536Z,4.00
2019-04-03T23:00:20.335Z,3.40
2019-04-03T23:02:52.772Z,3.30
2019-04-03T23:05:25.722Z,4.83
2019-04-03T23:07:57.364Z,4.07
2019-04-03T23:10:33.146Z,3.50
2019-04-03T23:13:05.813Z,3.00
2019-04-03T23:15:39.426Z,4.63
2019-04-03T23:18:12.140Z,3.60
2019-04-03T23:20:45.735Z,3.90
2019-04-03T23:23:17.827Z,3.07
2019-04-03T23:25:50.846Z,3.07
2019-04-03T23:28:24.068Z,4.90
2019-04-03T23:30:58.499Z,3.60
2019-04-03T23:33:30.659Z,3.77
2019-04-03T23:36:03.658Z,3.53
2019-04-03T23:38:35.701Z,3.80
2019-04-03T23:41:08.041Z,5.23
2019-04-03T23:43:40.747Z,4.00
2019-04-03T23:46:15.301Z,3.93
2019-04-03T23:48:49.025Z,3.17
2019-04-03T23:51:27.333Z,3.20
2019-04-03T23:54:02.631Z,3.60
2019-04-03T23:56:33.760Z,3.97
2019-04-03T23:59:05.836Z,3.80
